Thursday, April 28, 2016, 3:46 PM EDT
Back to Local

KHWV, Shirley Brookhaven Airport

Location: Shirley, NY, United States Lat: 40.817
Local Time: 3:46 PM EDT (19:46 GMT) Lon: -72.867
Time Zone: US/Eastern Elev: 82 ft

Show me the last for .
Show Coded

Time T Td Feel RH Dir Speed Gust Alt SLP Vis Weather Sky Remarks
2016-04-28 14:56 52 36 - 54 140° 10 - 30.05 30.05 10 CLR None
2016-04-28 13:56 50 33 45 52 150° 14 - 30.06 30.06 10 CLR 6-hr Min Temp (2pm): 50.0°F
6-hr Max Temp (2pm): 57.0°F
2016-04-28 12:56 52 35 - 52 130° 9 - 30.07 30.06 10 CLR None
2016-04-28 11:56 54 36 - 50 150° 15 18 30.07 30.07 10 CLR None
2016-04-28 10:56 56 28 - 34 Variable 6 - 30.06 30.06 10 CLR None
2016-04-28 09:56 54 24 - 31 10° 8 - 30.07 30.07 10 CLR None
2016-04-28 08:56 53 24 - 32 Variable 5 - 30.06 30.06 10 CLR None
2016-04-28 07:56 51 26 - 37 Variable 5 - 30.06 30.06 10 CLR 6-hr Min Temp (8am): 44.1°F
6-hr Max Temp (8am): 51.1°F
2016-04-28 06:56 46 27 45 47 10° 3 - 30.03 30.03 10 CLR None
2016-04-28 05:56 45 25 43 45 10° 5 - 30.00 30.00 10 CLR None
2016-04-28 04:56 45 29 40 53 360° 9 - 29.97 29.97 10 CLR None
2016-04-28 03:56 46 34 42 62 360° 8 - 29.95 29.95 10 CLR None
2016-04-28 02:56 46 43 41 88 360° 9 - 29.93 29.93 10 CLR None
2016-04-28 01:56 45 42 43 89 340° 5 - 29.92 29.92 10 CLR 6-hr Min Temp (2am): 45.0°F
6-hr Max Temp (2am): 48.9°F
2016-04-28 00:56 48 44 45 86 300° 6 - 29.93 29.93 10 CLR 24-hr Min Temp (1am): 39.0°F
24-hr Max Temp (1am): 55.0°F
2016-04-27 23:56 49 43 46 79 250° 7 - 29.91 29.91 10 CLR None
2016-04-27 22:56 49 41 47 73 240° 6 - 29.91 29.91 10 CLR None
2016-04-27 21:56 49 40 47 70 240° 6 - 29.91 29.90 10 CLR None
2016-04-27 20:56 49 40 46 70 210° 7 - 29.89 29.88 10 CLR None
2016-04-27 19:56 49 37 45 63 200° 9 - 29.88 29.88 10 CLR 6-hr Min Temp (8pm): 48.9°F
6-hr Max Temp (8pm): 54.0°F
2016-04-27 18:56 50 35 46 56 190° 9 - 29.89 29.89 10 CLR None
2016-04-27 17:56 52 36 - 54 200° 12 - 29.90 29.90 10 CLR None
2016-04-27 16:56 51 37 - 58 190° 12 - 29.91 29.91 10 CLR None
2016-04-27 15:56 52 40 - 63 210° 9 - 29.90 29.90 10 CLR None

Support USWX by starting your Amazon purchase here.